Fasa, Iran
Current Conditions -  °F | °C
As of 5:30 PM on Friday 19 Dec 2014 (Local Time) from OISS Reporting Station
Clear Clear  
Wind Chill: 55°   Ceiling: Unl
Heat Index: 55°   Visibility: 6mi
Dew Point: 25°   Wind: 0mph
Humidity: 31%   Direction: NA
Pressure: 30.21"   Gusts: NA
Location:  28.97°N, 53.68°E
Report Text: OISS 191330Z 00000KT CAVOK 13/M04 Q1023 A3023
Loading
Personal Weather Stations






























Interactive Weather Map New forecast layout! Learn more

10-Day Weather Forecast

Advertisements
Track Severe Weather on mobile